Skip Navigation Links
NOAA logo - Click to go to the NOAA homepage
NOAA's National Weather Service
Alaska Aviation Weather Unit
  NWS logo - Click to go to the NWS homepage
Left Navbar Graphic     09 AKDT = 17 GMT

   
NOAA is celebrating 200 years of science, service, and stewardship. Visit the NOAA 200th celebration Web site to learn more.
USA.gov is the U.S. Government's official Web portal to all Federal, state and local government Web resources and services.
Facebook
NWS on Facebook

Important Change Regarding the AAWU Web Presence

 

Over the last several months, the AAWU has been working to navigate its webpages to a nationally supported server. Security, as well as other needs, have necessitated the change.  In the process, we have made an effort to enhance the functionality of our website, as well as some of our products. As of June 20, 2017, aawu.arh.noaa.gov will be discontinued. The new AAWU web address is weather.gov/aawu. It is now live and will run in-parallel with the old site until it is discontinued. Please send any feedback or questions regarding the new webpages to nws.ar.aawu.webauthors@noaa.gov.  Thank you for your patience during this time of transition.
AAWU Home :: Display TAF Add Bookmark
TAF CYDB 271138Z 2712/2724 11007KT P6SM BKN150
    RMK FCST BASED ON AUTO OBS. NXT FCST BY 271800Z=

METAR CYDB 271100Z AUTO 08005KT 050V120 9SM BKN150 BKN170 02/M04 A3002 RMK SLP196= SPECI CYDB 271146Z AUTO 15015KT 9SM CLR 03/M08 A3002 RMK SLP196= METAR CYDB 271200Z AUTO 14015G22KT 9SM CLR 02/M08 A3002 RMK SLP197= METAR CYDB 271300Z AUTO 13011G17KT 9SM CLR 02/M08 A3003 RMK SLP200= METAR CYDB 271400Z 14010G20KT 30SM FEW120 SCT200 02/M08 A3004 RMK AC2CS2 CLIMAT 12.5/2.0/0.0 SLP202= METAR CYDB 271500Z 14011G19KT 30SM FEW120 SCT200 04/M07 A3004 RMK AC1CS3 SLP203= METAR CYDB 271600Z 13014G24KT 30SM FEW120 BKN200 05/M08 A3004 RMK AC2CS4 SLP201= METAR CYDB 271700Z 12013G21KT 30SM FEW120 SCT200 07/M07 A3004 RMK AC1CS2 SLP200=
 Alaska TAF Map

NOAA's National Weather Service
Alaska Aviation Weather Unit
6930 Sand Lake Road
Anchorage, AK 99502-1845
Disclaimer
Credits
Glossary
Privacy Policy
About Us
Career Opportunities
Contact AAWU Internet Services Site last modified: April, 17th 2012